createdAt,value
2022-09-20T00:00:17.133Z,39.23
2022-09-20T00:00:48.620Z,39.28
2022-09-20T00:01:20.214Z,39.15
2022-09-20T00:01:51.696Z,39.19
2022-09-20T00:02:23.144Z,39.02
2022-09-20T00:02:54.553Z,39.13
2022-09-20T00:03:25.947Z,39.22
2022-09-20T00:03:57.350Z,39.25
2022-09-20T00:04:28.721Z,39.19
2022-09-20T00:05:00.254Z,39.25
2022-09-20T00:05:31.708Z,39.28
2022-09-20T00:06:03.108Z,39.27
2022-09-20T00:06:34.585Z,39.19
2022-09-20T00:07:06.017Z,39.18
2022-09-20T00:07:37.508Z,39.13
2022-09-20T00:08:08.939Z,39.04
2022-09-20T00:08:40.462Z,39.19
2022-09-20T00:09:11.867Z,38.90
2022-09-20T00:09:43.302Z,39.20
2022-09-20T00:10:14.861Z,39.15
2022-09-20T00:10:46.252Z,39.20
2022-09-20T00:11:17.757Z,39.26
2022-09-20T00:11:49.207Z,39.25
2022-09-20T00:12:20.692Z,39.14
2022-09-20T00:12:52.106Z,39.15
2022-09-20T00:13:23.490Z,39.13
2022-09-20T00:13:55.015Z,39.22
2022-09-20T00:14:26.411Z,39.22
2022-09-20T00:14:57.858Z,39.06
2022-09-20T00:15:29.292Z,39.38
2022-09-20T00:16:00.675Z,39.18
2022-09-20T00:16:32.118Z,39.20
2022-09-20T00:17:03.767Z,39.17
2022-09-20T00:17:35.235Z,39.31
2022-09-20T00:18:06.649Z,39.13
2022-09-20T00:18:38.112Z,39.07
2022-09-20T00:19:10.181Z,39.15
2022-09-20T00:19:41.679Z,39.23
2022-09-20T00:20:13.155Z,39.15
2022-09-20T00:20:44.621Z,39.21
2022-09-20T00:21:16.068Z,39.03
2022-09-20T00:21:47.583Z,39.03
2022-09-20T00:22:19.033Z,39.30
2022-09-20T00:22:50.426Z,39.08
2022-09-20T00:23:21.869Z,39.22
2022-09-20T00:23:53.346Z,39.28
2022-09-20T00:24:24.759Z,39.29
2022-09-20T00:24:56.166Z,39.17
2022-09-20T00:25:27.657Z,39.17
2022-09-20T00:25:59.075Z,39.18
2022-09-20T00:26:30.576Z,39.06
2022-09-20T00:27:02.032Z,39.24
2022-09-20T00:27:33.606Z,39.00
2022-09-20T00:28:05.116Z,39.25
2022-09-20T00:28:36.688Z,39.13
2022-09-20T00:29:08.156Z,39.11
2022-09-20T00:29:39.804Z,39.16
2022-09-20T00:30:11.250Z,39.04
2022-09-20T00:30:42.930Z,39.08
2022-09-20T00:31:14.661Z,39.20
2022-09-20T00:31:46.289Z,39.14
2022-09-20T00:32:17.886Z,39.26
2022-09-20T00:32:49.348Z,39.31
2022-09-20T00:33:20.799Z,39.21
2022-09-20T00:33:52.251Z,39.09
2022-09-20T00:34:23.645Z,39.02
2022-09-20T00:34:55.076Z,39.15
2022-09-20T00:35:26.483Z,39.05
2022-09-20T00:35:57.954Z,39.26
2022-09-20T00:36:29.322Z,39.30
2022-09-20T00:37:00.686Z,39.17
2022-09-20T00:37:32.101Z,39.07
2022-09-20T00:38:03.649Z,39.08
2022-09-20T00:38:35.035Z,39.14
2022-09-20T00:39:06.413Z,39.00
2022-09-20T00:39:37.814Z,39.18
2022-09-20T00:40:09.358Z,39.21
2022-09-20T00:40:40.906Z,39.28
2022-09-20T00:41:12.402Z,39.06
2022-09-20T00:41:43.812Z,39.13
2022-09-20T00:42:15.387Z,39.06
2022-09-20T00:42:46.812Z,39.17
2022-09-20T00:43:18.283Z,39.20
2022-09-20T00:43:49.687Z,39.14
2022-09-20T00:44:21.104Z,38.96
2022-09-20T00:44:52.637Z,39.12
2022-09-20T00:45:24.039Z,39.15
2022-09-20T00:45:55.525Z,39.16
2022-09-20T00:46:26.996Z,39.05
2022-09-20T00:46:58.518Z,39.03
2022-09-20T00:47:29.948Z,39.14
2022-09-20T00:48:01.391Z,39.18
2022-09-20T00:48:32.942Z,39.10
2022-09-20T00:49:04.423Z,39.20
2022-09-20T00:49:35.814Z,38.98
2022-09-20T00:50:07.246Z,39.12
2022-09-20T00:50:38.669Z,39.13
2022-09-20T00:51:10.069Z,39.23
2022-09-20T00:51:41.477Z,39.29
2022-09-20T00:52:12.905Z,39.03
2022-09-20T00:52:44.322Z,39.02
2022-09-20T00:53:15.791Z,38.97
2022-09-20T00:53:47.415Z,39.03
2022-09-20T00:54:20.516Z,39.23
2022-09-20T00:54:52.206Z,39.19
2022-09-20T00:55:23.668Z,39.01
2022-09-20T00:55:55.274Z,39.24
2022-09-20T00:56:26.677Z,39.15
2022-09-20T00:56:58.088Z,39.20
2022-09-20T00:57:29.503Z,39.16
2022-09-20T00:58:00.889Z,39.16
2022-09-20T00:58:32.348Z,39.18
2022-09-20T00:59:03.827Z,39.03
2022-09-20T00:59:35.280Z,39.09
2022-09-20T01:00:06.670Z,38.99
2022-09-20T01:00:38.140Z,39.14
2022-09-20T01:01:09.641Z,39.01
2022-09-20T01:01:41.222Z,38.93
2022-09-20T01:02:12.864Z,38.99
2022-09-20T01:02:44.478Z,39.08
2022-09-20T01:03:15.971Z,39.10
2022-09-20T01:03:47.467Z,39.18
2022-09-20T01:04:18.932Z,39.25
2022-09-20T01:04:50.364Z,39.31
2022-09-20T01:05:21.727Z,39.13
2022-09-20T01:05:53.147Z,39.31
2022-09-20T01:06:24.540Z,39.24
2022-09-20T01:06:55.991Z,39.16
2022-09-20T01:07:27.402Z,39.23
2022-09-20T01:07:58.954Z,39.28
2022-09-20T01:08:30.413Z,39.27
2022-09-20T01:09:01.828Z,39.25
2022-09-20T01:09:33.311Z,39.23
2022-09-20T01:10:04.723Z,39.25
2022-09-20T01:10:36.137Z,39.23
2022-09-20T01:11:07.610Z,39.25
2022-09-20T01:11:39.019Z,39.11
2022-09-20T01:12:10.421Z,39.14
2022-09-20T01:12:41.910Z,39.20
2022-09-20T01:13:13.361Z,39.10
2022-09-20T01:13:44.871Z,38.96
2022-09-20T01:14:16.316Z,39.19
2022-09-20T01:14:47.825Z,39.26
2022-09-20T01:15:19.223Z,39.16
2022-09-20T01:15:50.718Z,39.08
2022-09-20T01:16:22.154Z,39.17
2022-09-20T01:16:53.739Z,38.98
2022-09-20T01:17:25.202Z,39.08
2022-09-20T01:17:56.589Z,39.09
2022-09-20T01:18:28.016Z,39.12
2022-09-20T01:18:59.419Z,39.10
2022-09-20T01:19:30.895Z,39.04
2022-09-20T01:20:02.475Z,39.27
2022-09-20T01:20:33.857Z,39.15
2022-09-20T01:21:05.319Z,39.19
2022-09-20T01:21:36.738Z,39.01
2022-09-20T01:22:08.091Z,39.05
2022-09-20T01:22:39.529Z,39.18
2022-09-20T01:23:11.154Z,39.01
2022-09-20T01:23:42.590Z,39.10
2022-09-20T01:24:14.260Z,39.23
2022-09-20T01:24:45.715Z,39.22
2022-09-20T01:25:17.329Z,39.15
2022-09-20T01:25:48.796Z,39.10
2022-09-20T01:26:20.275Z,39.11
2022-09-20T01:26:51.735Z,39.00
2022-09-20T01:27:23.163Z,39.07
2022-09-20T01:27:54.613Z,39.09
2022-09-20T01:28:26.111Z,39.04
2022-09-20T01:28:57.546Z,39.03
2022-09-20T01:29:28.957Z,38.99
2022-09-20T01:30:00.425Z,39.04
2022-09-20T01:30:31.871Z,39.12
2022-09-20T01:31:03.399Z,39.06
2022-09-20T01:31:34.893Z,38.96
2022-09-20T01:32:06.474Z,39.14
2022-09-20T01:32:37.908Z,39.09
2022-09-20T01:33:09.348Z,39.26
2022-09-20T01:33:40.775Z,39.07
2022-09-20T01:34:12.200Z,39.19
2022-09-20T01:34:43.600Z,39.00
2022-09-20T01:35:15.226Z,39.15
2022-09-20T01:35:46.599Z,38.92
2022-09-20T01:36:18.097Z,39.12
2022-09-20T01:36:49.514Z,39.08
2022-09-20T01:37:20.985Z,38.99
2022-09-20T01:37:52.449Z,39.04
2022-09-20T01:38:23.871Z,39.19
2022-09-20T01:38:55.372Z,39.16
2022-09-20T01:39:26.758Z,39.06
2022-09-20T01:39:58.289Z,39.07
2022-09-20T01:40:29.839Z,38.92
2022-09-20T01:41:01.361Z,39.14
2022-09-20T01:41:32.779Z,39.12
2022-09-20T01:42:04.236Z,39.17
2022-09-20T01:42:35.735Z,39.17
2022-09-20T01:43:07.236Z,38.90
2022-09-20T01:43:38.670Z,39.00
2022-09-20T01:44:10.081Z,39.11
2022-09-20T01:44:41.475Z,39.20
2022-09-20T01:45:12.965Z,39.02
2022-09-20T01:45:44.477Z,38.91
2022-09-20T01:46:15.970Z,38.99
2022-09-20T01:46:47.460Z,39.01
2022-09-20T01:47:18.876Z,38.98
2022-09-20T01:47:50.313Z,39.19
2022-09-20T01:48:21.793Z,39.14
2022-09-20T01:48:53.277Z,38.95
2022-09-20T01:49:24.757Z,39.08
2022-09-20T01:49:56.143Z,39.02
2022-09-20T01:50:27.553Z,39.00
2022-09-20T01:50:59.033Z,39.01
2022-09-20T01:51:30.396Z,39.00
2022-09-20T01:52:01.909Z,38.98
2022-09-20T01:52:33.325Z,38.92
2022-09-20T01:53:04.755Z,39.06
2022-09-20T01:53:36.163Z,38.93
2022-09-20T01:54:07.527Z,39.09
2022-09-20T01:54:38.971Z,39.07
2022-09-20T01:55:10.388Z,38.96
2022-09-20T01:55:41.867Z,39.26
2022-09-20T01:56:13.344Z,39.19
2022-09-20T01:56:44.758Z,39.08
2022-09-20T01:57:16.191Z,39.08
2022-09-20T01:57:47.593Z,39.06
2022-09-20T01:58:19.178Z,39.06
2022-09-20T01:59:07.203Z,39.17
2022-09-20T01:59:42.086Z,38.87
2022-09-20T02:00:13.528Z,39.09
2022-09-20T02:00:45.096Z,39.01
2022-09-20T02:01:16.684Z,38.96
2022-09-20T02:01:48.172Z,39.02
2022-09-20T02:02:19.703Z,39.13
2022-09-20T02:02:51.190Z,39.11
2022-09-20T02:03:22.691Z,38.97
2022-09-20T02:03:54.154Z,39.10
2022-09-20T02:04:25.560Z,39.11
2022-09-20T02:04:57.022Z,39.04
2022-09-20T02:05:28.501Z,38.94
2022-09-20T02:05:59.928Z,38.94
2022-09-20T02:06:31.294Z,39.02
2022-09-20T02:07:02.766Z,39.16
2022-09-20T02:07:34.227Z,38.89
2022-09-20T02:08:05.709Z,38.94
2022-09-20T02:08:37.083Z,39.04
2022-09-20T02:09:08.461Z,38.92
2022-09-20T02:09:39.846Z,39.05
2022-09-20T02:10:11.285Z,39.13
2022-09-20T02:10:42.712Z,39.13
2022-09-20T02:11:14.227Z,39.17
2022-09-20T02:11:45.630Z,39.10
2022-09-20T02:12:17.105Z,39.05
2022-09-20T02:12:48.559Z,38.84
2022-09-20T02:13:20.004Z,39.04
2022-09-20T02:13:51.430Z,38.96
2022-09-20T02:14:22.906Z,39.08
2022-09-20T02:14:54.353Z,39.00
2022-09-20T02:15:25.769Z,39.07
2022-09-20T02:15:57.183Z,39.02
2022-09-20T02:16:28.642Z,39.03
2022-09-20T02:17:00.213Z,38.94
2022-09-20T02:17:31.716Z,38.88
2022-09-20T02:18:03.381Z,38.91
2022-09-20T02:18:34.787Z,38.91
2022-09-20T02:19:06.281Z,38.95
2022-09-20T02:19:37.761Z,38.95
2022-09-20T02:20:09.173Z,39.12
2022-09-20T02:20:40.552Z,38.89
2022-09-20T02:21:11.975Z,39.01
2022-09-20T02:21:43.371Z,38.92
2022-09-20T02:22:14.866Z,39.15
2022-09-20T02:22:46.270Z,38.92
2022-09-20T02:23:17.752Z,39.04
2022-09-20T02:23:49.379Z,39.08
2022-09-20T02:24:20.820Z,39.09
2022-09-20T02:24:52.188Z,38.98
2022-09-20T02:25:23.663Z,39.09
2022-09-20T02:25:55.040Z,39.03
2022-09-20T02:26:26.452Z,39.00
2022-09-20T02:26:57.879Z,39.16
2022-09-20T02:27:29.307Z,39.13
2022-09-20T02:28:00.755Z,39.06
2022-09-20T02:28:32.290Z,38.99
2022-09-20T02:29:03.870Z,38.95
2022-09-20T02:29:35.259Z,39.14
2022-09-20T02:30:06.726Z,38.95
2022-09-20T02:30:38.144Z,39.01
2022-09-20T02:31:09.535Z,39.16
2022-09-20T02:31:41.035Z,39.07
2022-09-20T02:32:12.561Z,38.93
2022-09-20T02:32:43.955Z,39.02
2022-09-20T02:33:15.416Z,39.07
2022-09-20T02:33:46.845Z,38.95
2022-09-20T02:34:18.267Z,38.96
2022-09-20T02:34:49.678Z,39.16
2022-09-20T02:35:21.114Z,38.94
2022-09-20T02:35:52.524Z,39.12
2022-09-20T02:36:23.978Z,39.14
2022-09-20T02:36:55.374Z,39.14
2022-09-20T02:37:26.817Z,39.15
2022-09-20T02:37:58.263Z,39.13
2022-09-20T02:38:29.664Z,39.01
2022-09-20T02:39:01.071Z,39.11
2022-09-20T02:39:32.489Z,38.76
2022-09-20T02:40:03.939Z,39.02
2022-09-20T02:40:35.409Z,38.98
2022-09-20T02:41:06.878Z,39.09
2022-09-20T02:41:38.279Z,39.05
2022-09-20T02:42:09.644Z,39.09
2022-09-20T02:42:41.132Z,39.05
2022-09-20T02:43:12.540Z,38.97
2022-09-20T02:43:43.951Z,39.07
2022-09-20T02:44:15.493Z,39.15
2022-09-20T02:44:46.910Z,39.04
2022-09-20T02:45:18.390Z,39.05
2022-09-20T02:45:49.899Z,39.17
2022-09-20T02:46:21.516Z,39.04
2022-09-20T02:46:53.010Z,39.10
2022-09-20T02:47:24.448Z,39.00
2022-09-20T02:47:55.947Z,39.01
2022-09-20T02:48:27.369Z,39.07
2022-09-20T02:48:58.846Z,38.88
2022-09-20T02:49:30.288Z,39.03
2022-09-20T02:50:01.791Z,39.04
2022-09-20T02:50:33.223Z,39.06
2022-09-20T02:51:04.756Z,38.93
2022-09-20T02:51:36.137Z,39.03
2022-09-20T02:52:07.532Z,39.04
2022-09-20T02:52:38.953Z,39.02
2022-09-20T02:53:10.460Z,38.92
2022-09-20T02:53:41.851Z,38.98
2022-09-20T02:54:13.406Z,39.07
2022-09-20T02:54:44.838Z,39.12
2022-09-20T02:55:16.282Z,39.10
2022-09-20T02:55:47.709Z,38.97
2022-09-20T02:56:19.186Z,39.03
2022-09-20T02:56:50.621Z,38.83
2022-09-20T02:57:22.067Z,38.91
2022-09-20T02:57:53.474Z,39.12
2022-09-20T02:58:24.920Z,38.98
2022-09-20T02:58:56.402Z,39.04
2022-09-20T02:59:28.018Z,39.22
2022-09-20T02:59:59.464Z,39.05
2022-09-20T03:00:30.887Z,39.12
2022-09-20T03:01:02.412Z,39.16
2022-09-20T03:01:33.940Z,38.98
2022-09-20T03:02:05.430Z,39.06
2022-09-20T03:02:36.957Z,38.99
2022-09-20T03:03:08.424Z,39.22
2022-09-20T03:03:39.882Z,39.13
2022-09-20T03:04:11.312Z,38.91
2022-09-20T03:04:42.778Z,39.06
2022-09-20T03:05:14.258Z,39.14
2022-09-20T03:05:45.681Z,38.94
2022-09-20T03:06:17.114Z,39.00
2022-09-20T03:06:48.504Z,39.17
2022-09-20T03:07:19.932Z,39.17
2022-09-20T03:07:51.395Z,39.11
2022-09-20T03:08:22.815Z,39.10
2022-09-20T03:08:54.352Z,39.04
2022-09-20T03:09:25.811Z,39.06
2022-09-20T03:09:57.226Z,39.11
2022-09-20T03:10:28.630Z,39.04
2022-09-20T03:11:00.122Z,39.17
2022-09-20T03:11:31.548Z,39.17
2022-09-20T03:12:02.999Z,39.26
2022-09-20T03:12:34.442Z,39.04
2022-09-20T03:13:05.962Z,39.24
2022-09-20T03:13:37.400Z,39.01
2022-09-20T03:14:09.045Z,39.10
2022-09-20T03:14:40.464Z,39.15
2022-09-20T03:15:12.025Z,38.90
2022-09-20T03:15:43.460Z,38.93
2022-09-20T03:16:15.018Z,39.07
2022-09-20T03:16:51.311Z,38.93
2022-09-20T03:17:23.608Z,39.02
2022-09-20T03:17:55.023Z,39.07
2022-09-20T03:18:26.480Z,39.09
2022-09-20T03:18:57.936Z,39.06
2022-09-20T03:19:29.382Z,39.07
2022-09-20T03:20:00.806Z,39.09
2022-09-20T03:20:32.250Z,39.07
2022-09-20T03:21:03.682Z,38.94
2022-09-20T03:21:35.090Z,38.93
2022-09-20T03:22:06.592Z,39.06
2022-09-20T03:22:38.092Z,39.16
2022-09-20T03:23:09.581Z,38.81
2022-09-20T03:23:40.980Z,39.06
2022-09-20T03:24:12.496Z,39.06
2022-09-20T03:24:43.932Z,39.04
2022-09-20T03:25:15.364Z,39.17
2022-09-20T03:25:46.793Z,39.17
2022-09-20T03:26:18.306Z,39.13
2022-09-20T03:26:49.704Z,39.00
2022-09-20T03:27:21.237Z,39.09
2022-09-20T03:27:52.759Z,39.04
2022-09-20T03:28:24.167Z,39.08
2022-09-20T03:28:55.607Z,38.97
2022-09-20T03:29:27.060Z,39.02
2022-09-20T03:29:58.462Z,39.09
2022-09-20T03:30:29.876Z,39.01
2022-09-20T03:31:01.390Z,38.98
2022-09-20T03:31:32.926Z,39.08
2022-09-20T03:32:04.403Z,39.09
2022-09-20T03:32:35.928Z,39.03
2022-09-20T03:33:07.418Z,39.07
2022-09-20T03:33:38.818Z,38.76
2022-09-20T03:34:10.326Z,38.91
2022-09-20T03:34:41.746Z,38.98
2022-09-20T03:35:13.203Z,38.96
2022-09-20T03:35:44.700Z,39.01
2022-09-20T03:36:16.150Z,39.08
2022-09-20T03:36:47.641Z,39.08
2022-09-20T03:37:19.117Z,39.05
2022-09-20T03:37:50.661Z,38.96
2022-09-20T03:38:22.043Z,39.02
2022-09-20T03:38:53.482Z,38.92
2022-09-20T03:39:24.879Z,39.08
2022-09-20T03:39:56.436Z,38.95
2022-09-20T03:40:27.942Z,39.05
2022-09-20T03:40:59.459Z,38.94
2022-09-20T03:41:30.936Z,39.00
2022-09-20T03:42:02.332Z,39.01
2022-09-20T03:42:33.820Z,38.91
2022-09-20T03:43:05.334Z,38.93
2022-09-20T03:43:36.732Z,39.00
2022-09-20T03:44:08.198Z,39.02
2022-09-20T03:44:39.698Z,39.00
2022-09-20T03:45:11.127Z,39.14
2022-09-20T03:45:42.664Z,39.08
2022-09-20T03:46:14.325Z,38.98
2022-09-20T03:46:45.816Z,39.07
2022-09-20T03:47:17.227Z,39.06
2022-09-20T03:47:48.744Z,39.07
2022-09-20T03:48:20.270Z,38.89
2022-09-20T03:48:51.710Z,39.10
2022-09-20T03:49:23.171Z,39.12
2022-09-20T03:49:54.602Z,39.07
2022-09-20T03:50:26.061Z,39.04
2022-09-20T03:50:57.512Z,39.07
2022-09-20T03:51:33.624Z,38.98
2022-09-20T03:52:05.673Z,39.07
2022-09-20T03:52:37.087Z,39.08
2022-09-20T03:53:08.476Z,39.08
2022-09-20T03:53:39.963Z,38.91
2022-09-20T03:54:11.565Z,39.13
2022-09-20T03:54:43.034Z,39.06
2022-09-20T03:55:14.513Z,38.91
2022-09-20T03:55:45.993Z,39.02
2022-09-20T03:56:17.447Z,38.86
2022-09-20T03:56:48.872Z,39.07
2022-09-20T03:57:20.294Z,39.09
2022-09-20T03:57:51.748Z,39.00
2022-09-20T03:58:23.210Z,38.95
2022-09-20T03:58:54.611Z,39.11
2022-09-20T03:59:26.031Z,38.99
2022-09-20T03:59:57.427Z,39.09
2022-09-20T04:00:28.833Z,38.95
2022-09-20T04:01:00.405Z,39.19
2022-09-20T04:01:31.950Z,38.94
2022-09-20T04:02:03.652Z,39.17
2022-09-20T04:02:35.107Z,39.08
2022-09-20T04:03:06.568Z,39.08
2022-09-20T04:03:37.993Z,38.91
2022-09-20T04:04:09.409Z,39.03
2022-09-20T04:04:40.808Z,38.89
2022-09-20T04:05:12.238Z,39.13
2022-09-20T04:05:43.711Z,38.89
2022-09-20T04:06:15.146Z,38.95
2022-09-20T04:06:46.594Z,39.02
2022-09-20T04:07:18.206Z,39.01
2022-09-20T04:07:49.665Z,38.93
2022-09-20T04:08:21.115Z,39.01
2022-09-20T04:08:52.604Z,39.08
2022-09-20T04:09:24.144Z,39.11
2022-09-20T04:09:55.604Z,39.18
2022-09-20T04:10:27.133Z,39.15
2022-09-20T04:10:58.594Z,39.02
2022-09-20T04:11:30.126Z,38.83
2022-09-20T04:12:01.539Z,39.08
2022-09-20T04:12:33.101Z,39.10
2022-09-20T04:13:04.517Z,39.12
2022-09-20T04:13:35.967Z,39.07
2022-09-20T04:14:11.263Z,39.02
2022-09-20T04:14:43.065Z,38.89
2022-09-20T04:15:14.535Z,39.16
2022-09-20T04:15:46.041Z,38.94
2022-09-20T04:16:17.502Z,39.02
2022-09-20T04:16:49.192Z,38.98
2022-09-20T04:17:20.672Z,39.03
2022-09-20T04:17:52.103Z,38.97
2022-09-20T04:18:23.827Z,39.05
2022-09-20T04:18:55.234Z,39.06
2022-09-20T04:19:29.763Z,38.94
2022-09-20T04:20:04.195Z,39.14
2022-09-20T04:20:35.619Z,39.15
2022-09-20T04:21:07.158Z,39.20
2022-09-20T04:21:38.634Z,39.04
2022-09-20T04:22:10.156Z,39.04
2022-09-20T04:22:41.785Z,38.99
2022-09-20T04:23:13.291Z,39.03
2022-09-20T04:23:44.765Z,39.07
2022-09-20T04:24:16.159Z,39.21
2022-09-20T04:24:47.721Z,39.02
2022-09-20T04:25:19.177Z,39.14
2022-09-20T04:25:50.724Z,39.05
2022-09-20T04:26:22.100Z,39.09
2022-09-20T04:26:53.468Z,39.03
2022-09-20T04:27:24.998Z,39.05
2022-09-20T04:27:56.407Z,39.07
2022-09-20T04:28:27.882Z,39.15
2022-09-20T04:28:59.297Z,39.11
2022-09-20T04:29:30.712Z,39.07
2022-09-20T04:30:02.234Z,38.93
2022-09-20T04:30:33.865Z,39.02
2022-09-20T04:31:05.351Z,39.04
2022-09-20T04:31:36.809Z,39.02
2022-09-20T04:32:08.265Z,38.97
2022-09-20T04:32:39.709Z,39.18
2022-09-20T04:33:11.125Z,39.13
2022-09-20T04:33:42.521Z,39.25
2022-09-20T04:34:14.297Z,38.92
2022-09-20T04:34:45.744Z,39.11
2022-09-20T04:35:17.214Z,39.20
2022-09-20T04:35:48.638Z,39.13
2022-09-20T04:36:20.059Z,39.03
2022-09-20T04:36:51.484Z,39.02
2022-09-20T04:37:22.924Z,39.06
2022-09-20T04:37:54.488Z,38.91
2022-09-20T04:38:25.878Z,38.96
2022-09-20T04:38:57.365Z,38.98
2022-09-20T04:39:28.790Z,39.20
2022-09-20T04:40:00.279Z,39.06
2022-09-20T04:40:31.814Z,39.03
2022-09-20T04:41:03.252Z,38.95
2022-09-20T04:41:34.736Z,39.11
2022-09-20T04:42:06.181Z,38.96
2022-09-20T04:42:37.646Z,39.15
2022-09-20T04:43:09.043Z,39.25
2022-09-20T04:43:40.461Z,39.02
2022-09-20T04:44:11.876Z,39.07
2022-09-20T04:44:43.329Z,39.26
2022-09-20T04:45:14.903Z,39.17
2022-09-20T04:45:46.392Z,39.06
2022-09-20T04:46:17.799Z,39.21
2022-09-20T04:46:52.753Z,39.13
2022-09-20T04:47:26.660Z,39.10
2022-09-20T04:47:58.051Z,39.04
2022-09-20T04:48:29.487Z,39.25
2022-09-20T04:49:01.010Z,39.10
2022-09-20T04:49:32.442Z,39.13
2022-09-20T04:50:03.895Z,39.04
2022-09-20T04:50:35.309Z,39.17
2022-09-20T04:51:06.744Z,39.37
2022-09-20T04:51:38.208Z,39.26
2022-09-20T04:52:09.591Z,39.36
2022-09-20T04:52:41.055Z,39.05
2022-09-20T04:53:12.459Z,39.13
2022-09-20T04:53:43.874Z,38.99
2022-09-20T04:54:15.413Z,39.17
2022-09-20T04:54:46.813Z,39.24
2022-09-20T04:55:18.273Z,39.15
2022-09-20T04:55:49.720Z,39.27
2022-09-20T04:56:21.117Z,39.15
2022-09-20T04:56:52.534Z,39.21
2022-09-20T04:57:23.965Z,39.10
2022-09-20T04:57:55.452Z,39.26
2022-09-20T04:58:26.873Z,39.16
2022-09-20T04:58:58.337Z,39.19
2022-09-20T04:59:29.776Z,39.12
2022-09-20T05:00:01.204Z,39.20
2022-09-20T05:00:32.654Z,39.14
2022-09-20T05:01:04.109Z,39.19
2022-09-20T05:01:35.627Z,39.00
2022-09-20T05:02:07.083Z,39.10
2022-09-20T05:02:38.645Z,39.23
2022-09-20T05:03:10.109Z,39.30
2022-09-20T05:03:41.523Z,39.32
2022-09-20T05:04:12.982Z,39.13
2022-09-20T05:04:44.398Z,39.32
2022-09-20T05:05:15.792Z,39.26
2022-09-20T05:05:47.190Z,39.42
2022-09-20T05:06:18.574Z,39.25
2022-09-20T05:06:49.973Z,39.27
2022-09-20T05:07:21.381Z,39.14
2022-09-20T05:07:52.884Z,39.20
2022-09-20T05:08:24.319Z,39.27
2022-09-20T05:08:58.750Z,39.27
2022-09-20T05:09:30.702Z,39.35
2022-09-20T05:10:02.194Z,39.29
2022-09-20T05:10:33.701Z,39.12
2022-09-20T05:11:05.202Z,39.20
2022-09-20T05:11:36.647Z,39.40
2022-09-20T05:12:08.078Z,39.23
2022-09-20T05:12:39.487Z,39.17
2022-09-20T05:13:10.965Z,39.31
2022-09-20T05:13:42.437Z,39.30
2022-09-20T05:14:14.099Z,39.41
2022-09-20T05:14:45.610Z,39.28
2022-09-20T05:15:17.181Z,39.19
2022-09-20T05:15:48.623Z,39.33
2022-09-20T05:16:20.089Z,39.31
2022-09-20T05:16:51.672Z,39.39
2022-09-20T05:17:23.135Z,39.29
2022-09-20T05:17:54.646Z,39.15
2022-09-20T05:18:26.038Z,39.30
2022-09-20T05:18:57.481Z,39.37
2022-09-20T05:19:28.935Z,39.29
2022-09-20T05:20:00.360Z,39.19
2022-09-20T05:20:31.783Z,39.36
2022-09-20T05:21:03.206Z,39.22
2022-09-20T05:21:34.652Z,39.45
2022-09-20T05:22:06.152Z,39.30
2022-09-20T05:22:37.552Z,39.40
2022-09-20T05:23:08.985Z,39.23
2022-09-20T05:23:40.440Z,39.23
2022-09-20T05:24:12.688Z,39.33
2022-09-20T05:24:44.347Z,39.46
2022-09-20T05:25:15.800Z,39.41
2022-09-20T05:25:47.173Z,39.35
2022-09-20T05:26:18.576Z,39.46
2022-09-20T05:26:49.987Z,39.31
2022-09-20T05:27:21.435Z,39.52
2022-09-20T05:27:52.870Z,39.40
2022-09-20T05:28:24.314Z,39.47
2022-09-20T05:28:55.709Z,39.37
2022-09-20T05:29:27.176Z,39.26
2022-09-20T05:30:00.261Z,39.31
2022-09-20T05:30:34.430Z,39.29
2022-09-20T05:31:05.850Z,39.51
2022-09-20T05:31:37.395Z,39.44
2022-09-20T05:32:08.946Z,39.41
2022-09-20T05:32:40.513Z,39.47
2022-09-20T05:33:11.942Z,39.34
2022-09-20T05:33:43.431Z,39.31
2022-09-20T05:34:14.996Z,39.36
2022-09-20T05:34:46.521Z,39.29
2022-09-20T05:35:17.922Z,39.21
2022-09-20T05:35:49.401Z,39.41
2022-09-20T05:36:20.799Z,39.38
2022-09-20T05:36:52.193Z,39.36
2022-09-20T05:37:23.631Z,39.36
2022-09-20T05:37:55.066Z,39.28
2022-09-20T05:38:26.564Z,39.53
2022-09-20T05:39:00.202Z,39.48
2022-09-20T05:39:34.312Z,39.38
2022-09-20T05:40:05.777Z,39.50
2022-09-20T05:40:37.216Z,39.58
2022-09-20T05:41:08.713Z,39.54
2022-09-20T05:41:40.184Z,39.48
2022-09-20T05:42:11.593Z,39.49
2022-09-20T05:42:43.012Z,39.42
2022-09-20T05:43:14.497Z,39.45
2022-09-20T05:43:45.955Z,39.65
2022-09-20T05:44:17.363Z,39.46
2022-09-20T05:44:48.829Z,39.67
2022-09-20T05:45:20.307Z,39.64
2022-09-20T05:45:51.830Z,39.54
2022-09-20T05:46:23.271Z,39.44
2022-09-20T05:46:54.712Z,39.52
2022-09-20T05:47:26.280Z,39.58
2022-09-20T05:47:57.697Z,39.48
2022-09-20T05:48:29.171Z,39.45
2022-09-20T05:49:00.589Z,39.54
2022-09-20T05:49:32.013Z,39.59
2022-09-20T05:50:03.540Z,39.58
2022-09-20T05:50:34.986Z,39.49
2022-09-20T05:51:06.460Z,39.72
2022-09-20T05:51:37.887Z,39.63
2022-09-20T05:52:09.390Z,39.68
2022-09-20T05:52:40.800Z,39.70
2022-09-20T05:53:12.201Z,39.71
2022-09-20T05:53:43.635Z,39.63
2022-09-20T05:54:15.180Z,39.69
2022-09-20T05:54:46.614Z,39.62
2022-09-20T05:55:18.045Z,39.68
2022-09-20T05:55:49.651Z,39.60
2022-09-20T05:56:21.097Z,39.63
2022-09-20T05:56:52.489Z,39.78
2022-09-20T05:57:23.898Z,39.58
2022-09-20T05:57:55.383Z,39.59
2022-09-20T05:58:26.855Z,39.52
2022-09-20T05:58:58.266Z,39.58
2022-09-20T05:59:29.805Z,39.58
2022-09-20T06:00:01.240Z,39.63
2022-09-20T06:00:32.701Z,39.55
2022-09-20T06:01:04.161Z,39.60
2022-09-20T06:01:35.615Z,39.73
2022-09-20T06:02:07.098Z,39.68
2022-09-20T06:02:38.626Z,39.48
2022-09-20T06:03:10.091Z,39.61
2022-09-20T06:03:41.504Z,39.55
2022-09-20T06:04:13.026Z,39.71
2022-09-20T06:04:44.436Z,39.51
2022-09-20T06:05:15.862Z,39.63
2022-09-20T06:05:47.268Z,39.56
2022-09-20T06:06:18.781Z,39.63
2022-09-20T06:06:50.249Z,39.62
2022-09-20T06:07:21.696Z,39.61
2022-09-20T06:07:53.249Z,39.52
2022-09-20T06:08:24.668Z,39.59
2022-09-20T06:08:56.176Z,39.67
2022-09-20T06:09:27.565Z,39.75
2022-09-20T06:09:58.968Z,39.61
2022-09-20T06:10:30.382Z,39.68
2022-09-20T06:11:01.769Z,39.70
2022-09-20T06:11:33.195Z,39.83
2022-09-20T06:12:04.621Z,39.69
2022-09-20T06:12:36.055Z,39.64
2022-09-20T06:13:07.451Z,39.69
2022-09-20T06:13:38.858Z,39.65
2022-09-20T06:14:10.282Z,39.69
2022-09-20T06:14:41.728Z,39.62
2022-09-20T06:15:13.193Z,39.67
2022-09-20T06:15:44.712Z,39.57
2022-09-20T06:16:16.184Z,39.79
2022-09-20T06:16:47.629Z,39.78
2022-09-20T06:17:19.055Z,39.71
2022-09-20T06:17:50.424Z,39.79
2022-09-20T06:18:21.876Z,39.76
2022-09-20T06:18:53.276Z,39.75
2022-09-20T06:19:24.755Z,39.69
2022-09-20T06:19:56.146Z,39.75
2022-09-20T06:20:27.575Z,39.64
2022-09-20T06:20:58.987Z,39.73
2022-09-20T06:21:30.396Z,39.75
2022-09-20T06:22:03.693Z,39.80
2022-09-20T06:22:35.440Z,39.82
2022-09-20T06:23:06.890Z,39.60
2022-09-20T06:23:38.308Z,39.75
2022-09-20T06:24:09.842Z,39.85
2022-09-20T06:24:41.273Z,39.66
2022-09-20T06:25:12.689Z,39.80
2022-09-20T06:25:44.161Z,39.77
2022-09-20T06:26:15.579Z,39.71
2022-09-20T06:26:46.958Z,39.87
2022-09-20T06:27:18.346Z,39.75
2022-09-20T06:27:49.787Z,39.78
2022-09-20T06:28:21.914Z,39.85
2022-09-20T06:28:56.454Z,39.69
2022-09-20T06:29:29.688Z,39.75
2022-09-20T06:30:01.110Z,39.88
2022-09-20T06:30:32.605Z,39.88
2022-09-20T06:31:04.075Z,39.84
2022-09-20T06:31:35.522Z,39.85
2022-09-20T06:32:06.946Z,39.72
2022-09-20T06:32:38.315Z,39.88
2022-09-20T06:33:09.753Z,39.90
2022-09-20T06:33:41.155Z,39.82
2022-09-20T06:34:12.627Z,39.99
2022-09-20T06:34:44.041Z,39.73
2022-09-20T06:35:15.582Z,39.88
2022-09-20T06:35:46.989Z,39.96
2022-09-20T06:36:18.419Z,39.84
2022-09-20T06:36:49.883Z,39.85
2022-09-20T06:37:21.302Z,39.86
2022-09-20T06:37:52.831Z,39.92
2022-09-20T06:38:24.244Z,39.96
2022-09-20T06:38:55.685Z,40.03
2022-09-20T06:39:27.135Z,39.91
2022-09-20T06:39:58.643Z,39.96
2022-09-20T06:40:30.138Z,39.96
2022-09-20T06:41:01.566Z,39.80
2022-09-20T06:41:32.996Z,39.99
2022-09-20T06:42:04.444Z,39.87
2022-09-20T06:42:35.848Z,39.93
2022-09-20T06:43:07.244Z,40.00
2022-09-20T06:43:38.662Z,39.98
2022-09-20T06:44:10.103Z,39.84
2022-09-20T06:44:41.557Z,39.98
2022-09-20T06:45:13.086Z,39.95
2022-09-20T06:45:44.557Z,39.90
2022-09-20T06:46:16.103Z,40.10